sensor_id;sensor_type;location;lat;lon;timestamp;temperature;humidity
12708;DHT22;6418;50.824;4.718;2023-11-19T00:00:13;13.10;99.90
12708;DHT22;6418;50.824;4.718;2023-11-19T00:02:41;13.10;99.90
12708;DHT22;6418;50.824;4.718;2023-11-19T00:05:08;13.10;99.90
12708;DHT22;6418;50.824;4.718;2023-11-19T00:07:37;13.10;99.90
12708;DHT22;6418;50.824;4.718;2023-11-19T00:10:08;13.10;99.90
12708;DHT22;6418;50.824;4.718;2023-11-19T00:12:37;13.10;99.90
12708;DHT22;6418;50.824;4.718;2023-11-19T00:15:05;13.10;99.90
12708;DHT22;6418;50.824;4.718;2023-11-19T00:17:34;13.20;99.90
12708;DHT22;6418;50.824;4.718;2023-11-19T00:20:01;13.20;99.90
12708;DHT22;6418;50.824;4.718;2023-11-19T00:22:31;13.20;99.90
12708;DHT22;6418;50.824;4.718;2023-11-19T00:24:58;13.20;99.90
12708;DHT22;6418;50.824;4.718;2023-11-19T00:27:27;13.20;99.90
12708;DHT22;6418;50.824;4.718;2023-11-19T00:29:54;13.10;99.90
12708;DHT22;6418;50.824;4.718;2023-11-19T00:32:20;13.20;99.90
12708;DHT22;6418;50.824;4.718;2023-11-19T00:34:47;13.20;99.90
12708;DHT22;6418;50.824;4.718;2023-11-19T00:37:15;13.20;99.90
12708;DHT22;6418;50.824;4.718;2023-11-19T00:39:42;13.20;99.90
12708;DHT22;6418;50.824;4.718;2023-11-19T00:42:09;13.20;99.90
12708;DHT22;6418;50.824;4.718;2023-11-19T00:44:38;13.20;99.90
12708;DHT22;6418;50.824;4.718;2023-11-19T00:47:05;13.20;99.90
12708;DHT22;6418;50.824;4.718;2023-11-19T00:49:31;13.20;99.90
12708;DHT22;6418;50.824;4.718;2023-11-19T00:51:58;13.20;99.90
12708;DHT22;6418;50.824;4.718;2023-11-19T00:54:25;13.20;99.90
12708;DHT22;6418;50.824;4.718;2023-11-19T00:56:52;13.20;99.90
12708;DHT22;6418;50.824;4.718;2023-11-19T00:59:19;13.20;99.90
12708;DHT22;6418;50.824;4.718;2023-11-19T01:01:47;13.20;99.90
12708;DHT22;6418;50.824;4.718;2023-11-19T01:04:14;13.20;99.90
12708;DHT22;6418;50.824;4.718;2023-11-19T01:06:41;13.20;99.90
12708;DHT22;6418;50.824;4.718;2023-11-19T01:09:09;13.20;99.90
12708;DHT22;6418;50.824;4.718;2023-11-19T01:11:35;13.20;99.90
12708;DHT22;6418;50.824;4.718;2023-11-19T01:14:02;13.20;99.90
12708;DHT22;6418;50.824;4.718;2023-11-19T01:16:28;13.20;99.90
12708;DHT22;6418;50.824;4.718;2023-11-19T01:18:57;13.20;99.90
12708;DHT22;6418;50.824;4.718;2023-11-19T01:21:26;13.20;99.90
12708;DHT22;6418;50.824;4.718;2023-11-19T01:23:53;13.20;99.90
12708;DHT22;6418;50.824;4.718;2023-11-19T01:26:20;13.20;99.90
12708;DHT22;6418;50.824;4.718;2023-11-19T01:28:47;13.20;99.90
12708;DHT22;6418;50.824;4.718;2023-11-19T01:31:15;13.20;99.90
12708;DHT22;6418;50.824;4.718;2023-11-19T01:33:42;13.20;99.90
12708;DHT22;6418;50.824;4.718;2023-11-19T01:36:13;13.20;99.90
12708;DHT22;6418;50.824;4.718;2023-11-19T01:38:40;13.20;99.90
12708;DHT22;6418;50.824;4.718;2023-11-19T01:41:07;13.20;99.90
12708;DHT22;6418;50.824;4.718;2023-11-19T01:43:35;13.20;99.90
12708;DHT22;6418;50.824;4.718;2023-11-19T01:46:02;13.20;99.90
12708;DHT22;6418;50.824;4.718;2023-11-19T01:48:30;13.20;99.90
12708;DHT22;6418;50.824;4.718;2023-11-19T01:50:58;13.20;99.90
12708;DHT22;6418;50.824;4.718;2023-11-19T01:53:28;13.20;99.90
12708;DHT22;6418;50.824;4.718;2023-11-19T01:55:56;13.20;99.90
12708;DHT22;6418;50.824;4.718;2023-11-19T01:58:23;13.20;99.90
12708;DHT22;6418;50.824;4.718;2023-11-19T02:00:50;13.20;99.90
12708;DHT22;6418;50.824;4.718;2023-11-19T02:03:18;13.10;99.90
12708;DHT22;6418;50.824;4.718;2023-11-19T02:05:48;13.10;99.90
12708;DHT22;6418;50.824;4.718;2023-11-19T02:08:16;13.10;99.90
12708;DHT22;6418;50.824;4.718;2023-11-19T02:10:44;13.00;99.90
12708;DHT22;6418;50.824;4.718;2023-11-19T02:13:11;13.00;99.90
12708;DHT22;6418;50.824;4.718;2023-11-19T02:15:40;13.00;99.90
12708;DHT22;6418;50.824;4.718;2023-11-19T02:18:20;13.00;99.90
12708;DHT22;6418;50.824;4.718;2023-11-19T02:20:48;13.00;99.90
12708;DHT22;6418;50.824;4.718;2023-11-19T02:23:15;13.00;99.90
12708;DHT22;6418;50.824;4.718;2023-11-19T02:25:44;13.00;99.90
12708;DHT22;6418;50.824;4.718;2023-11-19T02:28:17;12.90;99.90
12708;DHT22;6418;50.824;4.718;2023-11-19T02:30:44;12.90;99.90
12708;DHT22;6418;50.824;4.718;2023-11-19T02:33:11;12.90;99.90
12708;DHT22;6418;50.824;4.718;2023-11-19T02:35:38;12.90;99.90
12708;DHT22;6418;50.824;4.718;2023-11-19T02:38:06;12.80;99.90
12708;DHT22;6418;50.824;4.718;2023-11-19T02:40:34;12.80;99.90
12708;DHT22;6418;50.824;4.718;2023-11-19T02:43:00;12.80;99.90
12708;DHT22;6418;50.824;4.718;2023-11-19T02:45:31;12.80;99.90
12708;DHT22;6418;50.824;4.718;2023-11-19T02:47:58;12.70;99.90
12708;DHT22;6418;50.824;4.718;2023-11-19T02:50:27;12.70;99.90
12708;DHT22;6418;50.824;4.718;2023-11-19T02:52:55;12.70;99.90
12708;DHT22;6418;50.824;4.718;2023-11-19T02:55:22;12.60;99.90
12708;DHT22;6418;50.824;4.718;2023-11-19T02:57:50;12.60;99.90
12708;DHT22;6418;50.824;4.718;2023-11-19T03:00:19;12.60;99.90
12708;DHT22;6418;50.824;4.718;2023-11-19T03:02:51;12.60;99.90
12708;DHT22;6418;50.824;4.718;2023-11-19T03:05:25;12.60;99.90
12708;DHT22;6418;50.824;4.718;2023-11-19T03:07:56;12.60;99.90
12708;DHT22;6418;50.824;4.718;2023-11-19T03:10:23;12.60;99.90
12708;DHT22;6418;50.824;4.718;2023-11-19T03:12:50;12.60;99.90
12708;DHT22;6418;50.824;4.718;2023-11-19T03:15:17;12.60;99.90
12708;DHT22;6418;50.824;4.718;2023-11-19T03:17:46;12.60;99.90
12708;DHT22;6418;50.824;4.718;2023-11-19T03:20:15;12.60;99.90
12708;DHT22;6418;50.824;4.718;2023-11-19T03:22:42;12.60;99.90
12708;DHT22;6418;50.824;4.718;2023-11-19T03:25:09;12.60;99.90
12708;DHT22;6418;50.824;4.718;2023-11-19T03:27:37;12.50;99.90
12708;DHT22;6418;50.824;4.718;2023-11-19T03:30:05;12.50;99.90
12708;DHT22;6418;50.824;4.718;2023-11-19T03:32:32;12.50;99.90
12708;DHT22;6418;50.824;4.718;2023-11-19T03:35:00;12.50;99.90
12708;DHT22;6418;50.824;4.718;2023-11-19T03:37:31;12.50;99.90
12708;DHT22;6418;50.824;4.718;2023-11-19T03:39:59;12.50;99.90
12708;DHT22;6418;50.824;4.718;2023-11-19T03:42:26;12.40;99.90
12708;DHT22;6418;50.824;4.718;2023-11-19T03:44:53;12.40;99.90
12708;DHT22;6418;50.824;4.718;2023-11-19T03:47:20;12.40;99.90
12708;DHT22;6418;50.824;4.718;2023-11-19T03:49:48;12.40;99.90
12708;DHT22;6418;50.824;4.718;2023-11-19T03:52:15;12.30;99.90
12708;DHT22;6418;50.824;4.718;2023-11-19T03:54:43;12.30;99.90
12708;DHT22;6418;50.824;4.718;2023-11-19T03:57:11;12.30;99.90
12708;DHT22;6418;50.824;4.718;2023-11-19T03:59:38;12.20;99.90
12708;DHT22;6418;50.824;4.718;2023-11-19T04:02:05;12.20;99.90
12708;DHT22;6418;50.824;4.718;2023-11-19T04:04:32;12.20;99.90
12708;DHT22;6418;50.824;4.718;2023-11-19T04:06:59;12.10;99.90
12708;DHT22;6418;50.824;4.718;2023-11-19T04:09:28;12.10;99.90
12708;DHT22;6418;50.824;4.718;2023-11-19T04:11:56;12.10;99.90
12708;DHT22;6418;50.824;4.718;2023-11-19T04:14:23;12.00;99.90
12708;DHT22;6418;50.824;4.718;2023-11-19T04:16:50;12.00;99.90
12708;DHT22;6418;50.824;4.718;2023-11-19T04:19:17;12.00;99.90
12708;DHT22;6418;50.824;4.718;2023-11-19T04:21:44;12.00;99.90
12708;DHT22;6418;50.824;4.718;2023-11-19T04:24:11;12.00;99.90
12708;DHT22;6418;50.824;4.718;2023-11-19T04:26:41;12.00;99.90
12708;DHT22;6418;50.824;4.718;2023-11-19T04:29:11;11.90;99.90
12708;DHT22;6418;50.824;4.718;2023-11-19T04:31:38;11.90;99.90
12708;DHT22;6418;50.824;4.718;2023-11-19T04:34:06;11.90;99.90
12708;DHT22;6418;50.824;4.718;2023-11-19T04:36:33;11.90;99.90
12708;DHT22;6418;50.824;4.718;2023-11-19T04:39:00;11.90;99.90
12708;DHT22;6418;50.824;4.718;2023-11-19T04:41:27;11.90;99.90
12708;DHT22;6418;50.824;4.718;2023-11-19T04:43:54;11.90;99.90
12708;DHT22;6418;50.824;4.718;2023-11-19T04:46:22;11.90;99.90
12708;DHT22;6418;50.824;4.718;2023-11-19T04:48:50;11.90;99.90
12708;DHT22;6418;50.824;4.718;2023-11-19T04:51:17;11.90;99.90
12708;DHT22;6418;50.824;4.718;2023-11-19T04:53:44;11.90;99.90
12708;DHT22;6418;50.824;4.718;2023-11-19T04:56:11;11.90;99.90
12708;DHT22;6418;50.824;4.718;2023-11-19T04:58:39;11.90;99.90
12708;DHT22;6418;50.824;4.718;2023-11-19T05:01:06;11.90;99.90
12708;DHT22;6418;50.824;4.718;2023-11-19T05:03:34;11.90;99.90
12708;DHT22;6418;50.824;4.718;2023-11-19T05:06:01;11.90;99.90
12708;DHT22;6418;50.824;4.718;2023-11-19T05:08:28;11.90;99.90
12708;DHT22;6418;50.824;4.718;2023-11-19T05:10:55;11.90;99.90
12708;DHT22;6418;50.824;4.718;2023-11-19T05:13:23;11.90;99.90
12708;DHT22;6418;50.824;4.718;2023-11-19T05:15:51;11.90;99.90
12708;DHT22;6418;50.824;4.718;2023-11-19T05:18:18;11.90;99.90
12708;DHT22;6418;50.824;4.718;2023-11-19T05:20:46;11.90;99.90
12708;DHT22;6418;50.824;4.718;2023-11-19T05:23:13;11.90;99.90
12708;DHT22;6418;50.824;4.718;2023-11-19T05:25:40;11.90;99.90
12708;DHT22;6418;50.824;4.718;2023-11-19T05:28:07;11.90;99.90
12708;DHT22;6418;50.824;4.718;2023-11-19T05:30:34;11.90;99.90
12708;DHT22;6418;50.824;4.718;2023-11-19T05:33:01;11.90;99.90
12708;DHT22;6418;50.824;4.718;2023-11-19T05:35:27;11.90;99.90
12708;DHT22;6418;50.824;4.718;2023-11-19T05:37:56;11.80;99.90
12708;DHT22;6418;50.824;4.718;2023-11-19T05:40:23;11.80;99.90
12708;DHT22;6418;50.824;4.718;2023-11-19T05:42:50;11.70;99.90
12708;DHT22;6418;50.824;4.718;2023-11-19T05:45:17;11.70;99.90
12708;DHT22;6418;50.824;4.718;2023-11-19T05:47:44;11.70;99.90
12708;DHT22;6418;50.824;4.718;2023-11-19T05:50:11;11.70;99.90
12708;DHT22;6418;50.824;4.718;2023-11-19T05:52:38;11.70;99.90
12708;DHT22;6418;50.824;4.718;2023-11-19T05:55:07;11.60;99.90
12708;DHT22;6418;50.824;4.718;2023-11-19T05:57:36;11.60;99.90
12708;DHT22;6418;50.824;4.718;2023-11-19T06:00:03;11.60;99.90
12708;DHT22;6418;50.824;4.718;2023-11-19T06:02:33;11.60;99.90
12708;DHT22;6418;50.824;4.718;2023-11-19T06:04:59;11.60;99.90
12708;DHT22;6418;50.824;4.718;2023-11-19T06:07:27;11.60;99.90
12708;DHT22;6418;50.824;4.718;2023-11-19T06:09:54;11.60;99.90
12708;DHT22;6418;50.824;4.718;2023-11-19T06:12:22;11.60;99.90
12708;DHT22;6418;50.824;4.718;2023-11-19T06:14:49;11.60;99.90
12708;DHT22;6418;50.824;4.718;2023-11-19T06:17:16;11.60;99.90
12708;DHT22;6418;50.824;4.718;2023-11-19T06:19:43;11.50;99.90
12708;DHT22;6418;50.824;4.718;2023-11-19T06:22:10;11.50;99.90
12708;DHT22;6418;50.824;4.718;2023-11-19T06:24:37;11.50;99.90
12708;DHT22;6418;50.824;4.718;2023-11-19T06:27:04;11.40;99.90
12708;DHT22;6418;50.824;4.718;2023-11-19T06:29:32;11.40;99.90
12708;DHT22;6418;50.824;4.718;2023-11-19T06:31:59;11.40;99.90
12708;DHT22;6418;50.824;4.718;2023-11-19T06:34:26;11.30;99.90
12708;DHT22;6418;50.824;4.718;2023-11-19T06:36:53;11.30;99.90
12708;DHT22;6418;50.824;4.718;2023-11-19T06:39:20;11.20;99.90
12708;DHT22;6418;50.824;4.718;2023-11-19T06:41:47;11.20;99.90
12708;DHT22;6418;50.824;4.718;2023-11-19T06:44:14;11.20;99.90
12708;DHT22;6418;50.824;4.718;2023-11-19T06:46:42;11.20;99.90
12708;DHT22;6418;50.824;4.718;2023-11-19T06:49:09;11.10;99.90
12708;DHT22;6418;50.824;4.718;2023-11-19T06:51:41;11.10;99.90
12708;DHT22;6418;50.824;4.718;2023-11-19T06:54:08;11.10;99.90
12708;DHT22;6418;50.824;4.718;2023-11-19T06:56:35;11.00;99.90
12708;DHT22;6418;50.824;4.718;2023-11-19T06:59:02;11.00;99.90
12708;DHT22;6418;50.824;4.718;2023-11-19T07:01:34;11.00;99.90
12708;DHT22;6418;50.824;4.718;2023-11-19T07:04:03;11.00;99.90
12708;DHT22;6418;50.824;4.718;2023-11-19T07:06:34;11.00;99.90
12708;DHT22;6418;50.824;4.718;2023-11-19T07:09:01;10.90;99.90
12708;DHT22;6418;50.824;4.718;2023-11-19T07:11:35;10.90;99.90
12708;DHT22;6418;50.824;4.718;2023-11-19T07:14:02;10.90;99.90
12708;DHT22;6418;50.824;4.718;2023-11-19T07:16:29;10.90;99.90
12708;DHT22;6418;50.824;4.718;2023-11-19T07:18:56;10.90;99.90
12708;DHT22;6418;50.824;4.718;2023-11-19T07:21:25;10.90;99.90
12708;DHT22;6418;50.824;4.718;2023-11-19T07:23:53;10.90;99.90
12708;DHT22;6418;50.824;4.718;2023-11-19T07:26:20;10.90;99.90
12708;DHT22;6418;50.824;4.718;2023-11-19T07:28:50;10.80;99.90
12708;DHT22;6418;50.824;4.718;2023-11-19T07:31:17;10.80;99.90
12708;DHT22;6418;50.824;4.718;2023-11-19T07:33:45;10.80;99.90
12708;DHT22;6418;50.824;4.718;2023-11-19T07:36:13;10.80;99.90
12708;DHT22;6418;50.824;4.718;2023-11-19T07:38:41;10.80;99.90
12708;DHT22;6418;50.824;4.718;2023-11-19T07:41:09;10.80;99.90
12708;DHT22;6418;50.824;4.718;2023-11-19T07:43:39;10.80;99.90
12708;DHT22;6418;50.824;4.718;2023-11-19T07:46:10;10.80;99.90
12708;DHT22;6418;50.824;4.718;2023-11-19T07:48:38;10.80;99.90
12708;DHT22;6418;50.824;4.718;2023-11-19T07:51:05;10.80;99.90
12708;DHT22;6418;50.824;4.718;2023-11-19T07:53:32;10.90;99.90
12708;DHT22;6418;50.824;4.718;2023-11-19T07:56:00;10.90;99.90
12708;DHT22;6418;50.824;4.718;2023-11-19T07:58:27;10.90;99.90
12708;DHT22;6418;50.824;4.718;2023-11-19T08:00:54;10.90;99.90
12708;DHT22;6418;50.824;4.718;2023-11-19T08:03:21;10.90;99.90
12708;DHT22;6418;50.824;4.718;2023-11-19T08:05:49;10.90;99.90
12708;DHT22;6418;50.824;4.718;2023-11-19T08:08:16;10.90;99.90
12708;DHT22;6418;50.824;4.718;2023-11-19T08:10:43;10.90;99.90
12708;DHT22;6418;50.824;4.718;2023-11-19T08:13:12;10.90;99.90
12708;DHT22;6418;50.824;4.718;2023-11-19T08:15:39;10.90;99.90
12708;DHT22;6418;50.824;4.718;2023-11-19T08:18:06;11.00;99.90
12708;DHT22;6418;50.824;4.718;2023-11-19T08:20:34;11.00;99.90
12708;DHT22;6418;50.824;4.718;2023-11-19T08:23:02;11.00;99.90
12708;DHT22;6418;50.824;4.718;2023-11-19T08:25:30;11.10;99.90
12708;DHT22;6418;50.824;4.718;2023-11-19T08:27:59;11.10;99.90
12708;DHT22;6418;50.824;4.718;2023-11-19T08:30:27;11.10;99.90
12708;DHT22;6418;50.824;4.718;2023-11-19T08:32:54;11.10;99.90
12708;DHT22;6418;50.824;4.718;2023-11-19T08:35:21;11.10;99.90
12708;DHT22;6418;50.824;4.718;2023-11-19T08:37:49;11.20;99.90
12708;DHT22;6418;50.824;4.718;2023-11-19T08:40:16;11.20;99.90
12708;DHT22;6418;50.824;4.718;2023-11-19T08:42:43;11.10;99.90
12708;DHT22;6418;50.824;4.718;2023-11-19T08:45:10;11.20;99.90
12708;DHT22;6418;50.824;4.718;2023-11-19T08:47:39;11.20;99.90
12708;DHT22;6418;50.824;4.718;2023-11-19T08:50:06;11.20;99.90
12708;DHT22;6418;50.824;4.718;2023-11-19T08:52:33;11.30;99.90
12708;DHT22;6418;50.824;4.718;2023-11-19T08:55:01;11.30;99.90
12708;DHT22;6418;50.824;4.718;2023-11-19T08:57:28;11.40;99.90
12708;DHT22;6418;50.824;4.718;2023-11-19T08:59:55;11.50;99.90
12708;DHT22;6418;50.824;4.718;2023-11-19T09:02:22;11.50;99.90
12708;DHT22;6418;50.824;4.718;2023-11-19T09:04:50;11.60;99.90
12708;DHT22;6418;50.824;4.718;2023-11-19T09:07:17;11.60;99.90
12708;DHT22;6418;50.824;4.718;2023-11-19T09:09:44;11.60;99.90
12708;DHT22;6418;50.824;4.718;2023-11-19T09:12:11;11.60;99.90
12708;DHT22;6418;50.824;4.718;2023-11-19T09:14:39;11.70;99.90
12708;DHT22;6418;50.824;4.718;2023-11-19T09:17:07;11.70;99.90
12708;DHT22;6418;50.824;4.718;2023-11-19T09:19:35;11.70;99.90
12708;DHT22;6418;50.824;4.718;2023-11-19T09:22:03;11.70;99.90
12708;DHT22;6418;50.824;4.718;2023-11-19T09:24:30;11.70;99.90
12708;DHT22;6418;50.824;4.718;2023-11-19T09:26:58;11.80;99.90
12708;DHT22;6418;50.824;4.718;2023-11-19T09:29:25;11.80;99.90
12708;DHT22;6418;50.824;4.718;2023-11-19T09:31:52;11.90;99.90
12708;DHT22;6418;50.824;4.718;2023-11-19T09:34:19;11.90;99.90
12708;DHT22;6418;50.824;4.718;2023-11-19T09:36:46;11.90;99.90
12708;DHT22;6418;50.824;4.718;2023-11-19T09:39:15;11.90;99.90
12708;DHT22;6418;50.824;4.718;2023-11-19T09:41:43;12.00;99.90
12708;DHT22;6418;50.824;4.718;2023-11-19T09:44:10;12.00;99.90
12708;DHT22;6418;50.824;4.718;2023-11-19T09:46:38;12.00;99.90
12708;DHT22;6418;50.824;4.718;2023-11-19T09:49:08;12.10;99.90
12708;DHT22;6418;50.824;4.718;2023-11-19T09:51:37;12.10;99.90
12708;DHT22;6418;50.824;4.718;2023-11-19T09:54:04;12.20;99.90
12708;DHT22;6418;50.824;4.718;2023-11-19T09:56:36;12.20;99.90
12708;DHT22;6418;50.824;4.718;2023-11-19T09:59:05;12.20;99.90
12708;DHT22;6418;50.824;4.718;2023-11-19T10:01:32;12.20;99.90
12708;DHT22;6418;50.824;4.718;2023-11-19T10:04:00;12.20;99.90
12708;DHT22;6418;50.824;4.718;2023-11-19T10:06:27;12.20;99.90
12708;DHT22;6418;50.824;4.718;2023-11-19T10:08:55;12.20;99.90
12708;DHT22;6418;50.824;4.718;2023-11-19T10:11:22;12.20;99.90
12708;DHT22;6418;50.824;4.718;2023-11-19T10:13:52;12.20;99.90
12708;DHT22;6418;50.824;4.718;2023-11-19T10:16:20;12.20;99.90
12708;DHT22;6418;50.824;4.718;2023-11-19T10:18:48;12.30;99.90
12708;DHT22;6418;50.824;4.718;2023-11-19T10:21:17;12.30;99.90
12708;DHT22;6418;50.824;4.718;2023-11-19T10:23:48;12.30;99.90
12708;DHT22;6418;50.824;4.718;2023-11-19T10:26:17;12.30;99.90
12708;DHT22;6418;50.824;4.718;2023-11-19T10:28:46;12.30;99.90
12708;DHT22;6418;50.824;4.718;2023-11-19T10:31:15;12.30;99.90
12708;DHT22;6418;50.824;4.718;2023-11-19T10:33:42;12.30;99.90
12708;DHT22;6418;50.824;4.718;2023-11-19T10:36:10;12.40;99.90
12708;DHT22;6418;50.824;4.718;2023-11-19T10:38:38;12.40;99.90
12708;DHT22;6418;50.824;4.718;2023-11-19T10:41:05;12.40;99.90
12708;DHT22;6418;50.824;4.718;2023-11-19T10:43:43;12.50;99.90
12708;DHT22;6418;50.824;4.718;2023-11-19T10:46:12;12.50;99.90
12708;DHT22;6418;50.824;4.718;2023-11-19T10:48:40;12.60;99.90
12708;DHT22;6418;50.824;4.718;2023-11-19T10:51:07;12.60;99.90
12708;DHT22;6418;50.824;4.718;2023-11-19T10:53:37;12.70;99.90
12708;DHT22;6418;50.824;4.718;2023-11-19T10:56:11;12.70;99.90
12708;DHT22;6418;50.824;4.718;2023-11-19T10:58:43;12.70;99.90
12708;DHT22;6418;50.824;4.718;2023-11-19T11:01:13;12.80;99.90
12708;DHT22;6418;50.824;4.718;2023-11-19T11:03:44;12.90;99.90
12708;DHT22;6418;50.824;4.718;2023-11-19T11:06:13;12.90;99.90
12708;DHT22;6418;50.824;4.718;2023-11-19T11:08:40;13.00;99.90
12708;DHT22;6418;50.824;4.718;2023-11-19T11:11:08;13.00;99.90
12708;DHT22;6418;50.824;4.718;2023-11-19T11:13:40;13.00;99.90
12708;DHT22;6418;50.824;4.718;2023-11-19T11:16:09;13.00;99.90
12708;DHT22;6418;50.824;4.718;2023-11-19T11:18:36;13.00;99.90
12708;DHT22;6418;50.824;4.718;2023-11-19T11:21:08;13.00;99.90
12708;DHT22;6418;50.824;4.718;2023-11-19T11:24:00;13.10;99.90
12708;DHT22;6418;50.824;4.718;2023-11-19T11:26:52;13.10;99.90
12708;DHT22;6418;50.824;4.718;2023-11-19T11:29:26;13.10;99.90
12708;DHT22;6418;50.824;4.718;2023-11-19T11:32:00;13.10;99.90
12708;DHT22;6418;50.824;4.718;2023-11-19T11:34:49;13.20;99.90
12708;DHT22;6418;50.824;4.718;2023-11-19T11:37:25;13.10;99.90
12708;DHT22;6418;50.824;4.718;2023-11-19T11:39:55;13.20;99.90
12708;DHT22;6418;50.824;4.718;2023-11-19T11:42:34;13.20;99.90
12708;DHT22;6418;50.824;4.718;2023-11-19T11:45:03;13.10;99.90
12708;DHT22;6418;50.824;4.718;2023-11-19T11:48:08;13.10;99.90
12708;DHT22;6418;50.824;4.718;2023-11-19T11:50:47;13.10;99.90
12708;DHT22;6418;50.824;4.718;2023-11-19T11:53:20;13.10;99.90
12708;DHT22;6418;50.824;4.718;2023-11-19T11:55:57;13.10;99.90
12708;DHT22;6418;50.824;4.718;2023-11-19T11:58:27;13.10;99.90
12708;DHT22;6418;50.824;4.718;2023-11-19T12:00:57;13.10;99.90
12708;DHT22;6418;50.824;4.718;2023-11-19T12:03:27;13.00;99.90
12708;DHT22;6418;50.824;4.718;2023-11-19T12:05:54;13.00;99.90
12708;DHT22;6418;50.824;4.718;2023-11-19T12:08:26;13.00;99.90
12708;DHT22;6418;50.824;4.718;2023-11-19T12:10:54;13.00;99.90
12708;DHT22;6418;50.824;4.718;2023-11-19T12:13:24;13.00;99.90
12708;DHT22;6418;50.824;4.718;2023-11-19T12:16:10;13.00;99.90
12708;DHT22;6418;50.824;4.718;2023-11-19T12:18:39;13.10;99.90
12708;DHT22;6418;50.824;4.718;2023-11-19T12:21:09;13.10;99.90
12708;DHT22;6418;50.824;4.718;2023-11-19T12:23:45;13.20;99.90
12708;DHT22;6418;50.824;4.718;2023-11-19T12:26:32;13.10;99.90
12708;DHT22;6418;50.824;4.718;2023-11-19T12:29:00;13.20;99.90
12708;DHT22;6418;50.824;4.718;2023-11-19T12:31:29;13.20;99.90
12708;DHT22;6418;50.824;4.718;2023-11-19T12:33:56;13.30;99.90
12708;DHT22;6418;50.824;4.718;2023-11-19T12:36:23;13.30;99.90
12708;DHT22;6418;50.824;4.718;2023-11-19T12:38:51;13.30;99.90
12708;DHT22;6418;50.824;4.718;2023-11-19T12:41:18;13.30;99.90
12708;DHT22;6418;50.824;4.718;2023-11-19T12:43:49;13.20;99.90
12708;DHT22;6418;50.824;4.718;2023-11-19T12:46:20;13.20;99.90
12708;DHT22;6418;50.824;4.718;2023-11-19T12:48:50;13.20;99.90
12708;DHT22;6418;50.824;4.718;2023-11-19T12:51:17;13.00;99.90
12708;DHT22;6418;50.824;4.718;2023-11-19T12:53:49;13.00;99.90
12708;DHT22;6418;50.824;4.718;2023-11-19T12:56:20;13.00;99.90
12708;DHT22;6418;50.824;4.718;2023-11-19T12:58:48;12.90;99.90
12708;DHT22;6418;50.824;4.718;2023-11-19T13:01:16;12.90;99.90
12708;DHT22;6418;50.824;4.718;2023-11-19T13:03:45;12.90;99.90
12708;DHT22;6418;50.824;4.718;2023-11-19T13:06:13;12.90;99.90
12708;DHT22;6418;50.824;4.718;2023-11-19T13:08:42;12.90;99.90
12708;DHT22;6418;50.824;4.718;2023-11-19T13:11:10;13.00;99.90
12708;DHT22;6418;50.824;4.718;2023-11-19T13:13:58;13.00;99.90
12708;DHT22;6418;50.824;4.718;2023-11-19T13:16:26;13.00;99.90
12708;DHT22;6418;50.824;4.718;2023-11-19T13:18:53;13.10;99.90
12708;DHT22;6418;50.824;4.718;2023-11-19T13:21:20;13.10;99.90
12708;DHT22;6418;50.824;4.718;2023-11-19T13:23:47;13.20;99.90
12708;DHT22;6418;50.824;4.718;2023-11-19T13:26:14;13.20;99.90
12708;DHT22;6418;50.824;4.718;2023-11-19T13:28:40;13.20;99.90
12708;DHT22;6418;50.824;4.718;2023-11-19T13:31:09;13.20;99.90
12708;DHT22;6418;50.824;4.718;2023-11-19T13:33:36;13.20;99.90
12708;DHT22;6418;50.824;4.718;2023-11-19T13:36:03;13.20;99.90
12708;DHT22;6418;50.824;4.718;2023-11-19T13:38:33;13.10;99.90
12708;DHT22;6418;50.824;4.718;2023-11-19T13:41:00;13.20;99.90
12708;DHT22;6418;50.824;4.718;2023-11-19T13:43:26;13.10;99.90
12708;DHT22;6418;50.824;4.718;2023-11-19T13:45:54;13.10;99.90
12708;DHT22;6418;50.824;4.718;2023-11-19T13:48:23;13.00;99.90
12708;DHT22;6418;50.824;4.718;2023-11-19T13:50:50;13.00;99.90
12708;DHT22;6418;50.824;4.718;2023-11-19T13:53:17;12.90;99.90
12708;DHT22;6418;50.824;4.718;2023-11-19T13:55:44;12.90;99.90
12708;DHT22;6418;50.824;4.718;2023-11-19T13:58:11;12.90;99.90
12708;DHT22;6418;50.824;4.718;2023-11-19T14:00:38;12.80;99.90
12708;DHT22;6418;50.824;4.718;2023-11-19T14:03:05;12.80;99.90
12708;DHT22;6418;50.824;4.718;2023-11-19T14:05:34;12.80;99.90
12708;DHT22;6418;50.824;4.718;2023-11-19T14:08:01;12.80;99.90
12708;DHT22;6418;50.824;4.718;2023-11-19T14:10:27;12.80;99.90
12708;DHT22;6418;50.824;4.718;2023-11-19T14:12:54;12.70;99.90
12708;DHT22;6418;50.824;4.718;2023-11-19T14:15:21;12.70;99.90
12708;DHT22;6418;50.824;4.718;2023-11-19T14:17:48;12.70;99.90
12708;DHT22;6418;50.824;4.718;2023-11-19T14:20:15;12.60;99.90
12708;DHT22;6418;50.824;4.718;2023-11-19T14:22:45;12.60;99.90
12708;DHT22;6418;50.824;4.718;2023-11-19T14:25:14;12.60;99.90
12708;DHT22;6418;50.824;4.718;2023-11-19T14:27:42;12.60;99.90
12708;DHT22;6418;50.824;4.718;2023-11-19T14:30:12;12.60;99.90
12708;DHT22;6418;50.824;4.718;2023-11-19T14:32:41;12.60;99.90
12708;DHT22;6418;50.824;4.718;2023-11-19T14:35:09;12.60;99.90
12708;DHT22;6418;50.824;4.718;2023-11-19T14:37:36;12.50;99.90
12708;DHT22;6418;50.824;4.718;2023-11-19T14:40:06;12.50;99.90
12708;DHT22;6418;50.824;4.718;2023-11-19T14:42:35;12.50;99.90
12708;DHT22;6418;50.824;4.718;2023-11-19T14:45:03;12.50;99.90
12708;DHT22;6418;50.824;4.718;2023-11-19T14:47:30;12.50;99.90
12708;DHT22;6418;50.824;4.718;2023-11-19T14:49:57;12.50;99.90
12708;DHT22;6418;50.824;4.718;2023-11-19T14:52:24;12.50;99.90
12708;DHT22;6418;50.824;4.718;2023-11-19T14:54:52;12.40;99.90
12708;DHT22;6418;50.824;4.718;2023-11-19T14:57:21;12.40;99.90
12708;DHT22;6418;50.824;4.718;2023-11-19T14:59:48;12.40;99.90
12708;DHT22;6418;50.824;4.718;2023-11-19T15:02:14;12.40;99.90
12708;DHT22;6418;50.824;4.718;2023-11-19T15:04:41;12.30;99.90
12708;DHT22;6418;50.824;4.718;2023-11-19T15:07:09;12.30;99.90
12708;DHT22;6418;50.824;4.718;2023-11-19T15:09:37;12.30;99.90
12708;DHT22;6418;50.824;4.718;2023-11-19T15:12:05;12.30;99.90
12708;DHT22;6418;50.824;4.718;2023-11-19T15:14:32;12.30;99.90
12708;DHT22;6418;50.824;4.718;2023-11-19T15:16:59;12.20;99.90
12708;DHT22;6418;50.824;4.718;2023-11-19T15:19:26;12.20;99.90
12708;DHT22;6418;50.824;4.718;2023-11-19T15:21:53;12.20;99.90
12708;DHT22;6418;50.824;4.718;2023-11-19T15:24:21;12.20;99.90
12708;DHT22;6418;50.824;4.718;2023-11-19T15:26:48;12.20;99.90
12708;DHT22;6418;50.824;4.718;2023-11-19T15:29:15;12.20;99.90
12708;DHT22;6418;50.824;4.718;2023-11-19T15:31:43;12.20;99.90
12708;DHT22;6418;50.824;4.718;2023-11-19T15:34:10;12.10;99.90
12708;DHT22;6418;50.824;4.718;2023-11-19T15:36:37;12.10;99.90
12708;DHT22;6418;50.824;4.718;2023-11-19T15:39:04;12.10;99.90
12708;DHT22;6418;50.824;4.718;2023-11-19T15:41:31;12.10;99.90
12708;DHT22;6418;50.824;4.718;2023-11-19T15:43:58;12.10;99.90
12708;DHT22;6418;50.824;4.718;2023-11-19T15:46:25;12.10;99.90
12708;DHT22;6418;50.824;4.718;2023-11-19T15:48:53;12.10;99.90
12708;DHT22;6418;50.824;4.718;2023-11-19T15:51:20;12.10;99.90